Погода Смолякина неделю

Смоленская область, Россия

23 - 29 мая
  • 23мая
    Сегодня
    +9°
    +23°
    Ясно и безоблачно
    ВремяПогодаТемператураВлажностьДавлениеВетер, м/сВероятность осадков
    00:00Ясно и безоблачно+13°C93 %750 мм2.7 м/с2 %
    03:00Ясно и безоблачно+12°C94 %751 мм2.9 м/с2 %
    06:00Ясно и безоблачно+11°C70 %752 мм4.0 м/с2 %
    09:00Ясно и безоблачно+17°C60 %753 мм4.0 м/с2 %
    12:00Ясно и безоблачно+22°C51 %753 мм4.9 м/с2 %
    15:00Ясно и безоблачно+23°C43 %753 мм5.1 м/с2 %
    18:00Ясно и безоблачно+22°C42 %753 мм4.7 м/с2 %
    21:00Ясно и безоблачно+17°C51 %754 мм4.2 м/с2 %
  • 24мая
    Пятница
    +8°
    +22°
    Ясно и безоблачно
    ВремяПогодаТемператураВлажностьДавлениеВетер, м/сВероятность осадков
    00:00Ясно и безоблачно+13°C54 %755 мм3.8 м/с2 %
    03:00Ясно и безоблачно+10°C62 %756 мм3.7 м/с2 %
    06:00Ясно и безоблачно+10°C61 %757 мм3.7 м/с2 %
    09:00Ясно и безоблачно+15°C51 %757 мм3.9 м/с2 %
    12:00Ясно и безоблачно+19°C41 %757 мм4.1 м/с2 %
    15:00Ясно и безоблачно+20°C36 %757 мм4.1 м/с2 %
    18:00Ясно и безоблачно+21°C36 %756 мм3.8 м/с2 %
    21:00Ясно и безоблачно+15°C51 %756 мм2.6 м/с2 %
  • 25мая
    Суббота
    +8°
    +23°
    Ясно и безоблачно
    ВремяПогодаТемператураВлажностьДавлениеВетер, м/сВероятность осадков
    00:00Ясно и безоблачно+11°C60 %756 мм2.8 м/с2 %
    03:00Ясно и безоблачно+9°C65 %756 мм2.8 м/с2 %
    06:00Ясно и безоблачно+9°C69 %756 мм2.6 м/с2 %
    09:00Ясно и безоблачно+16°C54 %756 мм2.4 м/с2 %
    12:00Ясно и безоблачно+22°C41 %755 мм2.8 м/с2 %
    15:00Ясно и безоблачно+22°C37 %754 мм3.0 м/с2 %
    18:00Ясно и безоблачно+23°C41 %753 мм2.2 м/с3 %
    21:00Ясно и безоблачно+16°C63 %753 мм2.0 м/с2 %
  • 26мая
    Воскресенье
    +9°
    +24°
    Ясно и безоблачно
    ВремяПогодаТемператураВлажностьДавлениеВетер, м/сВероятность осадков
    00:00Ясно и безоблачно+12°C64 %753 мм2.2 м/с2 %
    03:00Облачно с прояснениями+9°C70 %753 мм2.1 м/с2 %
    06:00Ясно и безоблачно+10°C74 %753 мм0.9 м/с2 %
    09:00Небольшая облачность+18°C53 %753 мм0.3 м/с3 %
    12:00Небольшая облачность+22°C38 %753 мм1.7 м/с2 %
    15:00Ясно и безоблачно+23°C35 %752 мм0.5 м/с9 %
    18:00Ясно и безоблачно+24°C36 %752 мм1.3 м/с3 %
    21:00Практически безоблачно+16°C60 %752 мм1.9 м/с3 %
Мы используем cookies
Соглашаюсь